Time,TemperatureF,DewpointF,PressureIn,WindDirection,WindDirectionDegrees,WindSpeedMPH,WindSpeedGustMPH,Humidity,HourlyPrecipIn,Conditions,Clouds,dailyrainin,SoftwareType,DateUTC
2013-01-26 00:00:00,32.6,31.3,30.29,West,269,1.0,1.0,95,0.00,,,0.00,Wunderground v.1.13,2013-01-26 05:00:00,
2013-01-26 00:02:00,32.5,31.2,30.29,West,269,1.0,2.0,95,0.00,,,0.00,Wunderground v.1.13,2013-01-26 05:02:00,
2013-01-26 00:05:00,32.6,31.3,30.29,West,269,1.0,2.0,95,0.00,,,0.00,Wunderground v.1.13,2013-01-26 05:05:00,
2013-01-26 00:07:00,32.6,31.3,30.29,West,269,2.0,2.0,95,0.00,,,0.00,Wunderground v.1.13,2013-01-26 05:07:00,
2013-01-26 00:12:00,32.6,31.3,30.29,West,269,1.0,1.0,95,0.00,,,0.00,Wunderground v.1.13,2013-01-26 05:12:00,
2013-01-26 00:17:00,32.6,31.3,30.29,West,269,0.0,0.0,95,0.00,,,0.00,Wunderground v.1.13,2013-01-26 05:17:00,
2013-01-26 00:23:00,32.5,31.2,30.29,West,269,0.0,1.0,95,0.00,,,0.00,Wunderground v.1.13,2013-01-26 05:23:00,
2013-01-26 00:29:00,32.5,31.2,30.29,West,269,0.0,0.0,95,0.00,,,0.00,Wunderground v.1.13,2013-01-26 05:29:00,
2013-01-26 00:34:00,32.5,31.2,30.29,West,269,0.0,0.0,95,0.00,,,0.00,Wunderground v.1.13,2013-01-26 05:34:00,
2013-01-26 00:40:00,32.4,31.1,30.29,West,269,0.0,1.0,95,0.00,,,0.00,Wunderground v.1.13,2013-01-26 05:40:00,
2013-01-26 00:45:00,32.4,31.1,30.29,West,269,1.0,1.0,95,0.00,,,0.00,Wunderground v.1.13,2013-01-26 05:45:00,
2013-01-26 00:51:00,32.4,31.1,30.29,West,269,1.0,1.0,95,0.00,,,0.00,Wunderground v.1.13,2013-01-26 05:51:00,
2013-01-26 00:56:00,32.4,31.4,30.29,West,269,0.0,1.0,96,0.00,,,0.00,Wunderground v.1.13,2013-01-26 05:56:00,
2013-01-26 01:02:00,32.4,31.4,30.29,West,269,1.0,1.0,96,0.00,,,0.00,Wunderground v.1.13,2013-01-26 06:02:00,
2013-01-26 01:07:00,32.4,31.4,30.30,West,269,0.0,1.0,96,0.00,,,0.00,Wunderground v.1.13,2013-01-26 06:07:00,
2013-01-26 01:13:00,32.3,31.3,30.30,West,269,0.0,0.0,96,0.00,,,0.00,Wunderground v.1.13,2013-01-26 06:13:00,
2013-01-26 01:18:00,32.4,31.1,30.30,West,269,0.0,0.0,95,0.00,,,0.00,Wunderground v.1.13,2013-01-26 06:18:00,
2013-01-26 01:24:00,32.3,31.3,30.30,West,269,0.0,0.0,96,0.00,,,0.00,Wunderground v.1.13,2013-01-26 06:24:00,
2013-01-26 01:29:00,32.3,31.3,30.30,West,269,0.0,0.0,96,0.00,,,0.00,Wunderground v.1.13,2013-01-26 06:29:00,
2013-01-26 01:35:00,32.3,31.0,30.30,West,269,0.0,0.0,95,0.00,,,0.00,Wunderground v.1.13,2013-01-26 06:35:00,
2013-01-26 01:40:00,32.3,31.0,30.30,West,269,0.0,0.0,95,0.00,,,0.00,Wunderground v.1.13,2013-01-26 06:40:00,
2013-01-26 01:46:00,32.3,31.0,30.30,West,269,0.0,0.0,95,0.00,,,0.00,Wunderground v.1.13,2013-01-26 06:46:00,
2013-01-26 01:52:00,32.3,31.0,30.30,West,269,0.0,0.0,95,0.00,,,0.00,Wunderground v.1.13,2013-01-26 06:52:00,
2013-01-26 01:57:00,32.3,31.0,30.31,West,269,0.0,0.0,95,0.00,,,0.00,Wunderground v.1.13,2013-01-26 06:57:00,
2013-01-26 02:02:00,32.3,31.0,30.31,West,269,0.0,0.0,95,0.00,,,0.00,Wunderground v.1.13,2013-01-26 07:02:00,
2013-01-26 02:08:00,32.3,31.0,30.31,West,269,0.0,0.0,95,0.00,,,0.00,Wunderground v.1.13,2013-01-26 07:08:00,
2013-01-26 02:13:00,32.3,31.0,30.31,West,269,0.0,0.0,95,0.00,,,0.00,Wunderground v.1.13,2013-01-26 07:13:00,
2013-01-26 02:19:00,32.3,31.0,30.31,West,269,0.0,1.0,95,0.00,,,0.00,Wunderground v.1.13,2013-01-26 07:19:00,
2013-01-26 02:25:00,32.3,31.0,30.32,West,269,0.0,0.0,95,0.00,,,0.00,Wunderground v.1.13,2013-01-26 07:25:00,
2013-01-26 02:31:00,32.3,31.0,30.32,West,269,0.0,0.0,95,0.00,,,0.00,Wunderground v.1.13,2013-01-26 07:31:00,
2013-01-26 02:36:00,32.3,31.3,30.32,West,269,0.0,0.0,96,0.00,,,0.00,Wunderground v.1.13,2013-01-26 07:36:00,
2013-01-26 02:42:00,32.3,31.3,30.32,West,269,0.0,1.0,96,0.00,,,0.00,Wunderground v.1.13,2013-01-26 07:42:00,
2013-01-26 02:47:00,32.2,31.2,30.32,West,269,1.0,3.0,96,0.00,,,0.00,Wunderground v.1.13,2013-01-26 07:47:00,
2013-01-26 02:53:00,32.2,31.2,30.31,West,269,1.0,2.0,96,0.00,,,0.00,Wunderground v.1.13,2013-01-26 07:53:00,
2013-01-26 02:59:00,32.2,31.2,30.31,West,269,1.0,3.0,96,0.00,,,0.00,Wunderground v.1.13,2013-01-26 07:59:00,
2013-01-26 03:05:00,32.2,31.2,30.31,West,269,2.0,3.0,96,0.00,,,0.00,Wunderground v.1.13,2013-01-26 08:05:00,
2013-01-26 03:10:00,32.3,31.3,30.32,West,269,2.0,2.0,96,0.00,,,0.00,Wunderground v.1.13,2013-01-26 08:10:00,
2013-01-26 03:16:00,32.3,31.3,30.32,West,269,1.0,1.0,96,0.00,,,0.00,Wunderground v.1.13,2013-01-26 08:16:00,
2013-01-26 03:22:00,32.3,31.3,30.32,West,269,0.0,3.0,96,0.00,,,0.00,Wunderground v.1.13,2013-01-26 08:22:00,
2013-01-26 03:27:00,32.3,31.3,30.33,West,269,1.0,4.0,96,0.00,,,0.00,Wunderground v.1.13,2013-01-26 08:27:00,
2013-01-26 03:33:00,32.3,31.3,30.33,West,269,2.0,5.0,96,0.00,,,0.00,Wunderground v.1.13,2013-01-26 08:33:00,
2013-01-26 03:39:00,32.4,31.4,30.33,West,269,3.0,4.0,96,0.00,,,0.00,Wunderground v.1.13,2013-01-26 08:39:00,
2013-01-26 03:44:00,32.3,31.3,30.32,West,269,2.0,2.0,96,0.00,,,0.00,Wunderground v.1.13,2013-01-26 08:44:00,
2013-01-26 03:50:00,32.3,31.3,30.32,West,269,2.0,4.0,96,0.00,,,0.00,Wunderground v.1.13,2013-01-26 08:50:00,
2013-01-26 03:55:00,32.3,31.3,30.32,West,269,2.0,2.0,96,0.00,,,0.00,Wunderground v.1.13,2013-01-26 08:55:00,
2013-01-26 04:01:00,32.3,31.3,30.32,West,269,1.0,1.0,96,0.00,,,0.00,Wunderground v.1.13,2013-01-26 09:01:00,
2013-01-26 04:07:00,32.3,31.3,30.32,West,269,1.0,4.0,96,0.00,,,0.00,Wunderground v.1.13,2013-01-26 09:07:00,
2013-01-26 04:13:00,32.3,31.3,30.32,West,269,2.0,3.0,96,0.00,,,0.00,Wunderground v.1.13,2013-01-26 09:13:00,
2013-01-26 04:18:00,32.3,31.3,30.32,West,269,3.0,3.0,96,0.00,,,0.00,Wunderground v.1.13,2013-01-26 09:18:00,
2013-01-26 04:24:00,32.3,31.3,30.32,West,269,2.0,2.0,96,0.00,,,0.00,Wunderground v.1.13,2013-01-26 09:24:00,
2013-01-26 04:30:00,32.2,31.2,30.32,West,269,1.0,1.0,96,0.00,,,0.00,Wunderground v.1.13,2013-01-26 09:30:00,
2013-01-26 04:35:00,32.2,31.2,30.33,West,269,0.0,0.0,96,0.00,,,0.00,Wunderground v.1.13,2013-01-26 09:35:00,
2013-01-26 04:41:00,32.2,31.2,30.33,West,269,0.0,0.0,96,0.00,,,0.00,Wunderground v.1.13,2013-01-26 09:41:00,
2013-01-26 04:47:00,32.1,31.1,30.33,West,269,1.0,3.0,96,0.00,,,0.00,Wunderground v.1.13,2013-01-26 09:47:00,
2013-01-26 04:52:00,32.0,31.0,30.33,West,269,2.0,3.0,96,0.00,,,0.00,Wunderground v.1.13,2013-01-26 09:52:00,
2013-01-26 04:58:00,31.9,30.9,30.33,WNW,284,4.0,6.0,96,0.00,,,0.00,Wunderground v.1.13,2013-01-26 09:58:00,
2013-01-26 05:03:00,31.7,30.7,30.33,WNW,286,5.0,6.0,96,0.00,,,0.00,Wunderground v.1.13,2013-01-26 10:03:00,
2013-01-26 05:09:00,31.6,30.6,30.34,WNW,286,4.0,4.0,96,0.00,,,0.00,Wunderground v.1.13,2013-01-26 10:09:00,
2013-01-26 05:14:00,31.6,30.6,30.34,WNW,286,3.0,3.0,96,0.00,,,0.00,Wunderground v.1.13,2013-01-26 10:14:00,
2013-01-26 05:20:00,31.6,30.6,30.34,WNW,286,2.0,2.0,96,0.00,,,0.00,Wunderground v.1.13,2013-01-26 10:20:00,
2013-01-26 05:25:00,31.6,30.6,30.34,WNW,286,1.0,1.0,96,0.00,,,0.00,Wunderground v.1.13,2013-01-26 10:25:00,
2013-01-26 05:31:00,31.6,30.6,30.34,WNW,286,0.0,0.0,96,0.00,,,0.00,Wunderground v.1.13,2013-01-26 10:31:00,
2013-01-26 05:36:00,31.6,30.6,30.34,WNW,286,0.0,0.0,96,0.00,,,0.00,Wunderground v.1.13,2013-01-26 10:36:00,
2013-01-26 05:42:00,31.5,30.5,30.34,WNW,286,0.0,0.0,96,0.00,,,0.00,Wunderground v.1.13,2013-01-26 10:42:00,
2013-01-26 05:47:00,31.4,30.1,30.34,WNW,286,1.0,1.0,95,0.00,,,0.00,Wunderground v.1.13,2013-01-26 10:47:00,
2013-01-26 05:53:00,31.3,30.0,30.34,WNW,286,0.0,1.0,95,0.00,,,0.00,Wunderground v.1.13,2013-01-26 10:53:00,
2013-01-26 05:59:00,31.2,29.9,30.35,WNW,286,0.0,0.0,95,0.00,,,0.00,Wunderground v.1.13,2013-01-26 10:59:00,
2013-01-26 06:04:00,31.1,29.8,30.35,WNW,286,1.0,3.0,95,0.00,,,0.00,Wunderground v.1.13,2013-01-26 11:04:00,
2013-01-26 06:09:00,31.0,29.7,30.35,WNW,286,1.0,1.0,95,0.00,,,0.00,Wunderground v.1.13,2013-01-26 11:09:00,
2013-01-26 06:15:00,30.9,29.6,30.35,WNW,286,1.0,1.0,95,0.00,,,0.00,Wunderground v.1.13,2013-01-26 11:15:00,
2013-01-26 06:21:00,30.8,29.5,30.35,WNW,286,0.0,0.0,95,0.00,,,0.00,Wunderground v.1.13,2013-01-26 11:21:00,
2013-01-26 06:26:00,30.8,29.5,30.36,WNW,286,0.0,0.0,95,0.00,,,0.00,Wunderground v.1.13,2013-01-26 11:26:00,
2013-01-26 06:31:00,30.7,29.4,30.36,WNW,286,0.0,0.0,95,0.00,,,0.00,Wunderground v.1.13,2013-01-26 11:31:00,
2013-01-26 06:37:00,30.6,29.3,30.36,WNW,286,0.0,0.0,95,0.00,,,0.00,Wunderground v.1.13,2013-01-26 11:37:00,
2013-01-26 06:42:00,30.6,29.3,30.36,WNW,286,0.0,0.0,95,0.00,,,0.00,Wunderground v.1.13,2013-01-26 11:42:00,
2013-01-26 06:48:00,30.5,29.2,30.36,WNW,286,0.0,0.0,95,0.00,,,0.00,Wunderground v.1.13,2013-01-26 11:48:00,
2013-01-26 06:54:00,30.5,29.2,30.36,WNW,286,0.0,0.0,95,0.00,,,0.00,Wunderground v.1.13,2013-01-26 11:54:00,
2013-01-26 06:59:00,30.4,29.1,30.36,WNW,286,0.0,0.0,95,0.00,,,0.00,Wunderground v.1.13,2013-01-26 11:59:00,
2013-01-26 07:05:00,30.3,29.0,30.36,WNW,286,0.0,0.0,95,0.00,,,0.00,Wunderground v.1.13,2013-01-26 12:05:00,
2013-01-26 07:11:00,30.2,28.9,30.37,WNW,286,0.0,0.0,95,0.00,,,0.00,Wunderground v.1.13,2013-01-26 12:11:00,
2013-01-26 07:17:00,30.1,28.8,30.37,WNW,286,0.0,0.0,95,0.00,,,0.00,Wunderground v.1.13,2013-01-26 12:17:00,
2013-01-26 07:22:00,30.0,28.7,30.37,WNW,286,0.0,0.0,95,0.00,,,0.00,Wunderground v.1.13,2013-01-26 12:22:00,
2013-01-26 07:28:00,29.9,28.6,30.37,WNW,286,0.0,0.0,95,0.00,,,0.00,Wunderground v.1.13,2013-01-26 12:28:00,
2013-01-26 07:33:00,29.9,28.6,30.37,WNW,286,0.0,0.0,95,0.00,,,0.00,Wunderground v.1.13,2013-01-26 12:33:00,
2013-01-26 07:39:00,29.8,28.5,30.37,WNW,286,0.0,0.0,95,0.00,,,0.00,Wunderground v.1.13,2013-01-26 12:39:00,
2013-01-26 07:44:00,29.8,28.5,30.37,WNW,286,0.0,0.0,95,0.00,,,0.00,Wunderground v.1.13,2013-01-26 12:44:00,
2013-01-26 07:50:00,29.7,28.4,30.37,WNW,286,0.0,0.0,95,0.00,,,0.00,Wunderground v.1.13,2013-01-26 12:50:00,
2013-01-26 07:56:00,29.6,28.3,30.37,WNW,286,0.0,0.0,95,0.00,,,0.00,Wunderground v.1.13,2013-01-26 12:56:00,
2013-01-26 08:01:00,29.5,28.2,30.38,WNW,286,0.0,0.0,95,0.00,,,0.00,Wunderground v.1.13,2013-01-26 13:01:00,
2013-01-26 08:06:00,29.4,28.1,30.37,WNW,286,0.0,0.0,95,0.00,,,0.00,Wunderground v.1.13,2013-01-26 13:06:00,
2013-01-26 08:12:00,29.3,28.0,30.37,WNW,286,0.0,0.0,95,0.00,,,0.00,Wunderground v.1.13,2013-01-26 13:12:00,
2013-01-26 08:17:00,29.2,27.9,30.37,WNW,286,0.0,0.0,95,0.00,,,0.00,Wunderground v.1.13,2013-01-26 13:17:00,
2013-01-26 08:23:00,29.2,27.9,30.37,WNW,286,0.0,0.0,95,0.00,,,0.00,Wunderground v.1.13,2013-01-26 13:23:00,
2013-01-26 08:29:00,29.3,28.0,30.38,WNW,286,0.0,0.0,95,0.00,,,0.00,Wunderground v.1.13,2013-01-26 13:29:00,
2013-01-26 08:34:00,29.3,28.0,30.38,WNW,286,0.0,0.0,95,0.00,,,0.00,Wunderground v.1.13,2013-01-26 13:34:00,
2013-01-26 08:39:00,29.5,28.2,30.38,WNW,286,0.0,0.0,95,0.00,,,0.00,Wunderground v.1.13,2013-01-26 13:39:00,
2013-01-26 08:45:00,29.7,28.4,30.38,WNW,286,0.0,0.0,95,0.00,,,0.00,Wunderground v.1.13,2013-01-26 13:45:00,
2013-01-26 08:50:00,30.1,28.8,30.38,WNW,286,0.0,0.0,95,0.00,,,0.00,Wunderground v.1.13,2013-01-26 13:50:00,
2013-01-26 08:56:00,30.5,29.2,30.38,WNW,286,0.0,0.0,95,0.00,,,0.00,Wunderground v.1.13,2013-01-26 13:56:00,
2013-01-26 09:01:00,30.7,29.4,30.39,WNW,286,0.0,0.0,95,0.00,,,0.00,Wunderground v.1.13,2013-01-26 14:01:00,
2013-01-26 09:07:00,31.1,30.1,30.39,WNW,286,0.0,0.0,96,0.00,,,0.00,Wunderground v.1.13,2013-01-26 14:07:00,
2013-01-26 09:13:00,31.4,30.4,30.39,WNW,286,0.0,0.0,96,0.00,,,0.00,Wunderground v.1.13,2013-01-26 14:13:00,
2013-01-26 09:18:00,31.5,30.5,30.39,WNW,286,0.0,0.0,96,0.00,,,0.00,Wunderground v.1.13,2013-01-26 14:18:00,
2013-01-26 09:24:00,31.6,30.6,30.39,WNW,286,0.0,0.0,96,0.00,,,0.00,Wunderground v.1.13,2013-01-26 14:24:00,
2013-01-26 09:30:00,32.0,30.7,30.39,WNW,286,0.0,0.0,95,0.00,,,0.00,Wunderground v.1.13,2013-01-26 14:30:00,
2013-01-26 09:36:00,32.4,31.4,30.39,WNW,286,0.0,0.0,96,0.00,,,0.00,Wunderground v.1.13,2013-01-26 14:36:00,
2013-01-26 09:41:00,32.5,31.2,30.40,WNW,286,0.0,0.0,95,0.00,,,0.00,Wunderground v.1.13,2013-01-26 14:41:00,
2013-01-26 09:47:00,32.8,31.5,30.40,WNW,286,0.0,0.0,95,0.00,,,0.00,Wunderground v.1.13,2013-01-26 14:47:00,
2013-01-26 09:53:00,33.3,32.0,30.40,WNW,286,0.0,0.0,95,0.00,,,0.00,Wunderground v.1.13,2013-01-26 14:53:00,
2013-01-26 09:58:00,33.4,32.1,30.40,WNW,286,0.0,0.0,95,0.00,,,0.01,Wunderground v.1.13,2013-01-26 14:58:00,
2013-01-26 10:03:00,33.8,32.5,30.40,WNW,286,0.0,1.0,95,0.00,,,0.01,Wunderground v.1.13,2013-01-26 15:03:00,
2013-01-26 10:09:00,34.3,32.8,30.40,WNW,286,0.0,0.0,94,0.00,,,0.01,Wunderground v.1.13,2013-01-26 15:09:00,
2013-01-26 10:14:00,34.8,33.0,30.40,WNW,286,0.0,0.0,93,0.00,,,0.02,Wunderground v.1.13,2013-01-26 15:14:00,
2013-01-26 10:20:00,35.2,33.1,30.40,WNW,286,0.0,0.0,92,0.00,,,0.02,Wunderground v.1.13,2013-01-26 15:20:00,
2013-01-26 10:26:00,35.6,32.7,30.40,WNW,286,0.0,2.0,89,0.05,,,0.03,Wunderground v.1.13,2013-01-26 15:26:00,
2013-01-26 10:32:00,35.7,32.2,30.41,WNW,286,1.0,3.0,87,0.05,,,0.03,Wunderground v.1.13,2013-01-26 15:32:00,
2013-01-26 10:37:00,35.8,31.4,30.41,WNW,286,2.0,4.0,84,0.06,,,0.04,Wunderground v.1.13,2013-01-26 15:37:00,
2013-01-26 10:43:00,36.0,31.0,30.41,WNW,286,2.0,3.0,82,0.06,,,0.04,Wunderground v.1.13,2013-01-26 15:43:00,
2013-01-26 10:49:00,36.4,31.1,30.41,WNW,286,3.0,5.0,81,0.05,,,0.05,Wunderground v.1.13,2013-01-26 15:49:00,
2013-01-26 10:54:00,37.0,31.4,30.41,WNW,286,3.0,3.0,80,0.05,,,0.05,Wunderground v.1.13,2013-01-26 15:54:00,
2013-01-26 11:00:00,37.1,31.2,30.41,WNW,286,3.0,4.0,79,0.05,,,0.05,Wunderground v.1.13,2013-01-26 16:00:00,
2013-01-26 11:05:00,37.2,30.7,30.41,WNW,286,3.0,3.0,77,0.04,,,0.06,Wunderground v.1.13,2013-01-26 16:05:00,
2013-01-26 11:10:00,37.5,31.3,30.41,WNW,286,2.0,4.0,78,0.04,,,0.06,Wunderground v.1.13,2013-01-26 16:10:00,
2013-01-26 11:16:00,37.7,31.1,30.41,WNW,286,2.0,5.0,77,0.04,,,0.06,Wunderground v.1.13,2013-01-26 16:16:00,
2013-01-26 11:22:00,38.4,32.1,30.40,WNW,286,2.0,3.0,78,0.04,,,0.07,Wunderground v.1.13,2013-01-26 16:22:00,
2013-01-26 11:27:00,38.9,32.3,30.40,WNW,286,3.0,5.0,77,0.04,,,0.07,Wunderground v.1.13,2013-01-26 16:27:00,
2013-01-26 11:34:00,39.1,31.5,30.41,WNW,288,4.0,6.0,74,0.06,,,0.08,Wunderground v.1.13,2013-01-26 16:34:00,
2013-01-26 11:39:00,39.7,31.8,30.41,WNW,288,4.0,6.0,73,0.06,,,0.08,Wunderground v.1.13,2013-01-26 16:39:00,
2013-01-26 11:45:00,40.0,32.0,30.40,WNW,288,4.0,5.0,73,0.06,,,0.09,Wunderground v.1.13,2013-01-26 16:45:00,
2013-01-26 11:50:00,40.3,32.3,30.41,WNW,288,4.0,4.0,73,0.06,,,0.09,Wunderground v.1.13,2013-01-26 16:50:00,
2013-01-26 11:56:00,41.1,32.8,30.41,WNW,288,3.0,4.0,72,0.04,,,0.10,Wunderground v.1.13,2013-01-26 16:56:00,
2013-01-26 12:01:00,41.1,32.4,30.40,West,277,3.0,4.0,71,0.04,,,0.10,Wunderground v.1.13,2013-01-26 17:01:00,
2013-01-26 12:07:00,40.7,32.4,30.40,West,276,3.0,5.0,72,0.04,,,0.10,Wunderground v.1.13,2013-01-26 17:07:00,
2013-01-26 12:12:00,39.8,31.5,30.40,West,264,3.0,4.0,72,0.04,,,0.11,Wunderground v.1.13,2013-01-26 17:12:00,
2013-01-26 12:18:00,40.0,32.7,30.40,West,265,3.0,7.0,75,0.04,,,0.11,Wunderground v.1.13,2013-01-26 17:18:00,
2013-01-26 12:24:00,40.6,32.3,30.40,West,264,4.0,5.0,72,0.04,,,0.11,Wunderground v.1.13,2013-01-26 17:24:00,
2013-01-26 12:29:00,40.5,31.8,30.40,WSW,257,4.0,4.0,71,0.00,,,0.11,Wunderground v.1.13,2013-01-26 17:29:00,
2013-01-26 12:35:00,40.7,31.7,30.39,WSW,257,4.0,6.0,70,0.00,,,0.11,Wunderground v.1.13,2013-01-26 17:35:00,
2013-01-26 12:41:00,40.8,32.5,30.39,WSW,256,3.0,3.0,72,0.00,,,0.12,Wunderground v.1.13,2013-01-26 17:41:00,
2013-01-26 12:47:00,41.0,32.3,30.39,West,260,4.0,6.0,71,0.00,,,0.12,Wunderground v.1.13,2013-01-26 17:47:00,
2013-01-26 12:52:00,41.4,32.0,30.38,West,275,4.0,7.0,69,0.00,,,0.12,Wunderground v.1.13,2013-01-26 17:52:00,
2013-01-26 12:58:00,41.4,31.6,30.38,WNW,288,4.0,6.0,68,0.00,,,0.12,Wunderground v.1.13,2013-01-26 17:58:00,
2013-01-26 13:04:00,41.3,31.9,30.38,West,281,6.0,11.0,69,0.00,,,0.13,Wunderground v.1.13,2013-01-26 18:04:00,
2013-01-26 13:09:00,41.0,31.2,30.38,WNW,298,7.0,7.0,68,0.00,,,0.13,Wunderground v.1.13,2013-01-26 18:09:00,
2013-01-26 13:15:00,40.7,31.3,30.38,WNW,293,6.0,6.0,69,0.00,,,0.13,Wunderground v.1.13,2013-01-26 18:15:00,
2013-01-26 13:21:00,40.8,31.4,30.38,WNW,290,5.0,5.0,69,0.00,,,0.13,Wunderground v.1.13,2013-01-26 18:21:00,
2013-01-26 13:26:00,41.5,32.4,30.38,WNW,290,4.0,5.0,70,0.00,,,0.13,Wunderground v.1.13,2013-01-26 18:26:00,
2013-01-26 13:31:00,41.8,31.6,30.37,West,265,5.0,7.0,67,0.00,,,0.13,Wunderground v.1.13,2013-01-26 18:31:00,
2013-01-26 13:37:00,42.4,31.8,30.37,WNW,302,6.0,9.0,66,0.00,,,0.13,Wunderground v.1.13,2013-01-26 18:37:00,
2013-01-26 13:42:00,42.5,32.3,30.37,WNW,300,5.0,7.0,67,0.00,,,0.13,Wunderground v.1.13,2013-01-26 18:42:00,
2013-01-26 13:48:00,42.5,31.6,30.37,WNW,302,7.0,9.0,65,0.00,,,0.13,Wunderground v.1.13,2013-01-26 18:48:00,
2013-01-26 13:54:00,42.3,32.1,30.36,West,270,7.0,7.0,67,0.00,,,0.13,Wunderground v.1.13,2013-01-26 18:54:00,
2013-01-26 13:59:00,42.2,32.4,30.36,West,264,6.0,9.0,68,0.00,,,0.13,Wunderground v.1.13,2013-01-26 18:59:00,
2013-01-26 14:04:00,42.2,32.4,30.37,West,264,6.0,6.0,68,0.00,,,0.13,Wunderground v.1.13,2013-01-26 19:04:00,
2013-01-26 14:10:00,42.1,31.9,30.37,West,275,5.0,5.0,67,0.00,,,0.13,Wunderground v.1.13,2013-01-26 19:10:00,
2013-01-26 14:15:00,41.8,31.6,30.37,West,274,4.0,4.0,67,0.00,,,0.13,Wunderground v.1.13,2013-01-26 19:15:00,
2013-01-26 14:21:00,41.8,32.0,30.37,West,272,4.0,7.0,68,0.00,,,0.13,Wunderground v.1.13,2013-01-26 19:21:00,
2013-01-26 14:27:00,42.0,31.5,30.37,West,280,4.0,5.0,66,0.00,,,0.13,Wunderground v.1.13,2013-01-26 19:27:00,
2013-01-26 14:33:00,42.7,32.5,30.37,West,277,3.0,5.0,67,0.00,,,0.13,Wunderground v.1.13,2013-01-26 19:33:00,
2013-01-26 14:38:00,43.1,32.1,30.37,WNW,302,5.0,7.0,65,0.00,,,0.13,Wunderground v.1.13,2013-01-26 19:38:00,
2013-01-26 14:44:00,43.0,31.3,30.37,NW,304,5.0,6.0,63,0.00,,,0.13,Wunderground v.1.13,2013-01-26 19:44:00,
2013-01-26 14:50:00,42.8,31.5,30.37,NW,313,4.0,6.0,64,0.00,,,0.13,Wunderground v.1.13,2013-01-26 19:50:00,
2013-01-26 14:55:00,42.6,31.3,30.37,NW,322,3.0,4.0,64,0.00,,,0.13,Wunderground v.1.13,2013-01-26 19:55:00,
2013-01-26 15:01:00,42.2,30.9,30.37,NNW,338,3.0,4.0,64,0.00,,,0.13,Wunderground v.1.13,2013-01-26 20:01:00,
2013-01-26 15:07:00,42.1,31.6,30.37,NNW,336,3.0,4.0,66,0.00,,,0.13,Wunderground v.1.13,2013-01-26 20:07:00,
2013-01-26 15:12:00,42.3,31.4,30.37,NW,313,4.0,10.0,65,0.00,,,0.13,Wunderground v.1.13,2013-01-26 20:12:00,
2013-01-26 15:18:00,42.3,31.4,30.37,NW,309,5.0,7.0,65,0.00,,,0.13,Wunderground v.1.13,2013-01-26 20:18:00,
2013-01-26 15:24:00,42.5,31.6,30.37,NW,309,3.0,5.0,65,0.00,,,0.13,Wunderground v.1.13,2013-01-26 20:24:00,
2013-01-26 15:30:00,42.7,31.7,30.37,NW,307,3.0,5.0,65,0.00,,,0.13,Wunderground v.1.13,2013-01-26 20:30:00,
2013-01-26 15:36:00,42.6,30.9,30.38,NW,308,3.0,3.0,63,0.00,,,0.13,Wunderground v.1.13,2013-01-26 20:36:00,
2013-01-26 15:41:00,42.8,31.8,30.38,NW,308,3.0,5.0,65,0.00,,,0.13,Wunderground v.1.13,2013-01-26 20:41:00,
2013-01-26 15:47:00,43.0,31.3,30.38,NW,308,3.0,6.0,63,0.00,,,0.13,Wunderground v.1.13,2013-01-26 20:47:00,
2013-01-26 15:53:00,43.0,31.6,30.38,NW,309,4.0,6.0,64,0.00,,,0.13,Wunderground v.1.13,2013-01-26 20:53:00,
2013-01-26 15:58:00,42.8,30.7,30.38,NW,309,3.0,4.0,62,0.00,,,0.13,Wunderground v.1.13,2013-01-26 20:58:00,
2013-01-26 16:04:00,42.5,31.2,30.39,NW,309,3.0,4.0,64,0.00,,,0.13,Wunderground v.1.13,2013-01-26 21:04:00,
2013-01-26 16:10:00,42.3,31.4,30.39,NW,309,3.0,3.0,65,0.00,,,0.13,Wunderground v.1.13,2013-01-26 21:10:00,
2013-01-26 16:16:00,42.0,31.5,30.39,NW,309,4.0,6.0,66,0.00,,,0.13,Wunderground v.1.13,2013-01-26 21:16:00,
2013-01-26 16:21:00,41.9,32.1,30.39,NW,314,4.0,4.0,68,0.00,,,0.13,Wunderground v.1.13,2013-01-26 21:21:00,
2013-01-26 16:27:00,41.8,32.4,30.39,NNW,331,4.0,5.0,69,0.00,,,0.13,Wunderground v.1.13,2013-01-26 21:27:00,
2013-01-26 16:33:00,41.5,32.1,30.39,NNW,342,3.0,6.0,69,0.00,,,0.13,Wunderground v.1.13,2013-01-26 21:33:00,
2013-01-26 16:39:00,41.4,32.3,30.39,North,355,3.0,9.0,70,0.00,,,0.13,Wunderground v.1.13,2013-01-26 21:39:00,
2013-01-26 16:44:00,40.9,31.5,30.39,NNE,17,4.0,4.0,69,0.00,,,0.13,Wunderground v.1.13,2013-01-26 21:44:00,
2013-01-26 16:50:00,40.5,31.5,30.39,NNE,19,4.0,4.0,70,0.00,,,0.13,Wunderground v.1.13,2013-01-26 21:50:00,
2013-01-26 16:56:00,40.3,31.6,30.39,North,9,4.0,5.0,71,0.00,,,0.13,Wunderground v.1.13,2013-01-26 21:56:00,
2013-01-26 17:02:00,40.1,31.8,30.39,North,5,4.0,4.0,72,0.00,,,0.13,Wunderground v.1.13,2013-01-26 22:02:00,
2013-01-26 17:07:00,39.8,31.5,30.39,North,9,3.0,5.0,72,0.00,,,0.13,Wunderground v.1.13,2013-01-26 22:07:00,
2013-01-26 17:13:00,39.4,31.8,30.40,North,11,3.0,6.0,74,0.00,,,0.13,Wunderground v.1.13,2013-01-26 22:13:00,
2013-01-26 17:19:00,38.9,31.6,30.40,NNE,15,4.0,6.0,75,0.00,,,0.13,Wunderground v.1.13,2013-01-26 22:19:00,
2013-01-26 17:24:00,38.3,31.1,30.40,NNE,20,4.0,5.0,75,0.00,,,0.13,Wunderground v.1.13,2013-01-26 22:24:00,
2013-01-26 17:30:00,37.9,31.0,30.40,NNE,20,3.0,4.0,76,0.00,,,0.13,Wunderground v.1.13,2013-01-26 22:30:00,
2013-01-26 17:36:00,37.5,30.9,30.40,NNE,20,1.0,2.0,77,0.00,,,0.13,Wunderground v.1.13,2013-01-26 22:36:00,
2013-01-26 17:41:00,37.1,30.9,30.40,NNE,20,1.0,2.0,78,0.00,,,0.13,Wunderground v.1.13,2013-01-26 22:41:00,
2013-01-26 17:47:00,36.8,30.6,30.40,NNE,20,1.0,2.0,78,0.00,,,0.13,Wunderground v.1.13,2013-01-26 22:47:00,
2013-01-26 17:52:00,36.3,30.1,30.40,NNE,17,2.0,6.0,78,0.00,,,0.13,Wunderground v.1.13,2013-01-26 22:52:00,
2013-01-26 17:59:00,35.7,29.8,30.40,North,9,3.0,6.0,79,0.00,,,0.13,Wunderground v.1.13,2013-01-26 22:59:00,
2013-01-26 18:04:00,35.4,29.8,30.40,North,9,1.0,1.0,80,0.00,,,0.13,Wunderground v.1.13,2013-01-26 23:04:00,
2013-01-26 18:10:00,35.2,29.6,30.40,North,9,0.0,0.0,80,0.00,,,0.13,Wunderground v.1.13,2013-01-26 23:10:00,
2013-01-26 18:16:00,35.0,29.5,30.40,North,9,0.0,0.0,80,0.00,,,0.13,Wunderground v.1.13,2013-01-26 23:16:00,
2013-01-26 18:21:00,34.8,29.3,30.40,North,9,0.0,1.0,80,0.00,,,0.13,Wunderground v.1.13,2013-01-26 23:21:00,
2013-01-26 18:27:00,34.5,29.0,30.40,North,9,0.0,0.0,80,0.00,,,0.13,Wunderground v.1.13,2013-01-26 23:27:00,
2013-01-26 18:33:00,34.4,28.9,30.41,North,9,0.0,0.0,80,0.00,,,0.13,Wunderground v.1.13,2013-01-26 23:33:00,
2013-01-26 18:39:00,34.0,28.5,30.41,North,9,0.0,0.0,80,0.00,,,0.13,Wunderground v.1.13,2013-01-26 23:39:00,
2013-01-26 18:45:00,33.7,28.2,30.41,North,9,0.0,0.0,80,0.00,,,0.13,Wunderground v.1.13,2013-01-26 23:45:00,
2013-01-26 18:50:00,33.2,28.0,30.41,North,9,0.0,0.0,81,0.00,,,0.13,Wunderground v.1.13,2013-01-26 23:50:00,
2013-01-26 18:56:00,32.8,27.6,30.41,North,9,0.0,0.0,81,0.00,,,0.13,Wunderground v.1.13,2013-01-26 23:56:00,
2013-01-26 19:02:00,32.3,27.1,30.41,North,9,0.0,0.0,81,0.00,,,0.13,Wunderground v.1.13,2013-01-27 00:02:00,
2013-01-26 19:08:00,31.9,27.0,30.41,North,9,0.0,0.0,82,0.00,,,0.13,Wunderground v.1.13,2013-01-27 00:08:00,
2013-01-26 19:13:00,31.5,26.6,30.41,North,9,0.0,0.0,82,0.00,,,0.13,Wunderground v.1.13,2013-01-27 00:13:00,
2013-01-26 19:19:00,31.1,26.5,30.41,North,9,0.0,0.0,83,0.00,,,0.13,Wunderground v.1.13,2013-01-27 00:19:00,
2013-01-26 19:25:00,30.7,26.1,30.42,North,9,0.0,0.0,83,0.00,,,0.13,Wunderground v.1.13,2013-01-27 00:25:00,
2013-01-26 19:30:00,30.3,26.0,30.41,North,9,0.0,0.0,84,0.00,,,0.13,Wunderground v.1.13,2013-01-27 00:30:00,
2013-01-26 19:35:00,30.1,25.8,30.42,North,9,0.0,0.0,84,0.00,,,0.13,Wunderground v.1.13,2013-01-27 00:35:00,
2013-01-26 19:41:00,29.8,25.6,30.42,North,9,0.0,0.0,84,0.00,,,0.13,Wunderground v.1.13,2013-01-27 00:41:00,
2013-01-26 19:46:00,29.5,25.5,30.42,North,9,0.0,0.0,85,0.00,,,0.13,Wunderground v.1.13,2013-01-27 00:46:00,
2013-01-26 19:52:00,29.3,25.4,30.42,North,9,0.0,0.0,85,0.00,,,0.13,Wunderground v.1.13,2013-01-27 00:52:00,
2013-01-26 19:57:00,29.1,25.2,30.43,North,9,0.0,0.0,85,0.00,,,0.13,Wunderground v.1.13,2013-01-27 00:57:00,
2013-01-26 20:03:00,29.0,25.3,30.43,North,9,0.0,0.0,86,0.00,,,0.13,Wunderground v.1.13,2013-01-27 01:03:00,
2013-01-26 20:08:00,28.9,25.2,30.43,North,9,0.0,0.0,86,0.00,,,0.13,Wunderground v.1.13,2013-01-27 01:08:00,
2013-01-26 20:14:00,28.8,25.1,30.43,North,9,0.0,0.0,86,0.00,,,0.13,Wunderground v.1.13,2013-01-27 01:14:00,
2013-01-26 20:20:00,28.6,24.9,30.43,North,9,0.0,0.0,86,0.00,,,0.13,Wunderground v.1.13,2013-01-27 01:20:00,
2013-01-26 20:25:00,28.4,25.0,30.44,North,9,0.0,0.0,87,0.00,,,0.13,Wunderground v.1.13,2013-01-27 01:25:00,
2013-01-26 20:31:00,28.3,24.9,30.44,North,9,0.0,0.0,87,0.00,,,0.13,Wunderground v.1.13,2013-01-27 01:31:00,
2013-01-26 20:37:00,28.2,24.8,30.44,North,9,0.0,0.0,87,0.00,,,0.13,Wunderground v.1.13,2013-01-27 01:37:00,
2013-01-26 20:42:00,28.0,24.6,30.44,North,9,0.0,0.0,87,0.00,,,0.13,Wunderground v.1.13,2013-01-27 01:42:00,
2013-01-26 20:48:00,27.9,24.8,30.44,North,9,0.0,0.0,88,0.00,,,0.13,Wunderground v.1.13,2013-01-27 01:48:00,
2013-01-26 20:54:00,27.8,24.7,30.44,North,9,0.0,0.0,88,0.00,,,0.13,Wunderground v.1.13,2013-01-27 01:54:00,
2013-01-26 20:59:00,27.7,24.6,30.44,North,9,0.0,0.0,88,0.00,,,0.13,Wunderground v.1.13,2013-01-27 01:59:00,
2013-01-26 21:04:00,27.7,24.9,30.45,North,9,0.0,0.0,89,0.00,,,0.13,Wunderground v.1.13,2013-01-27 02:04:00,
2013-01-26 21:10:00,27.8,25.0,30.45,North,9,0.0,0.0,89,0.00,,,0.13,Wunderground v.1.13,2013-01-27 02:10:00,
2013-01-26 21:15:00,27.8,25.0,30.45,North,9,0.0,0.0,89,0.00,,,0.13,Wunderground v.1.13,2013-01-27 02:15:00,
2013-01-26 21:21:00,27.6,24.8,30.45,North,9,0.0,0.0,89,0.00,,,0.13,Wunderground v.1.13,2013-01-27 02:21:00,
2013-01-26 21:27:00,27.5,24.7,30.45,North,9,0.0,0.0,89,0.00,,,0.13,Wunderground v.1.13,2013-01-27 02:27:00,
2013-01-26 21:32:00,27.3,24.5,30.45,North,9,0.0,0.0,89,0.00,,,0.13,Wunderground v.1.13,2013-01-27 02:32:00,
2013-01-26 21:37:00,27.0,24.2,30.45,North,9,0.0,0.0,89,0.00,,,0.13,Wunderground v.1.13,2013-01-27 02:37:00,
2013-01-26 21:43:00,26.9,24.1,30.45,North,9,0.0,0.0,89,0.00,,,0.13,Wunderground v.1.13,2013-01-27 02:43:00,
2013-01-26 21:49:00,26.9,24.4,30.46,North,9,0.0,0.0,90,0.00,,,0.13,Wunderground v.1.13,2013-01-27 02:49:00,
2013-01-26 21:54:00,26.7,24.2,30.46,North,9,0.0,0.0,90,0.00,,,0.13,Wunderground v.1.13,2013-01-27 02:54:00,
2013-01-26 22:00:00,26.6,24.1,30.46,North,9,0.0,0.0,90,0.00,,,0.13,Wunderground v.1.13,2013-01-27 03:00:00,
2013-01-26 22:06:00,26.5,24.0,30.46,North,9,0.0,0.0,90,0.00,,,0.13,Wunderground v.1.13,2013-01-27 03:06:00,
2013-01-26 22:11:00,26.4,23.9,30.46,North,9,0.0,0.0,90,0.00,,,0.13,Wunderground v.1.13,2013-01-27 03:11:00,
2013-01-26 22:17:00,26.4,23.9,30.46,North,9,0.0,0.0,90,0.00,,,0.13,Wunderground v.1.13,2013-01-27 03:17:00,
2013-01-26 22:23:00,26.3,23.8,30.46,North,9,0.0,0.0,90,0.00,,,0.13,Wunderground v.1.13,2013-01-27 03:23:00,
2013-01-26 22:28:00,26.2,23.7,30.46,North,9,0.0,0.0,90,0.00,,,0.13,Wunderground v.1.13,2013-01-27 03:28:00,
2013-01-26 22:33:00,26.0,23.5,30.47,North,9,0.0,0.0,90,0.00,,,0.13,Wunderground v.1.13,2013-01-27 03:33:00,
2013-01-26 22:39:00,25.9,23.4,30.47,North,9,0.0,0.0,90,0.00,,,0.13,Wunderground v.1.13,2013-01-27 03:39:00,
2013-01-26 22:44:00,25.8,23.3,30.47,North,9,0.0,0.0,90,0.00,,,0.13,Wunderground v.1.13,2013-01-27 03:44:00,
2013-01-26 22:50:00,25.8,23.5,30.47,North,9,0.0,0.0,91,0.00,,,0.13,Wunderground v.1.13,2013-01-27 03:50:00,
2013-01-26 22:56:00,25.7,23.4,30.48,North,9,0.0,0.0,91,0.00,,,0.13,Wunderground v.1.13,2013-01-27 03:56:00,
2013-01-26 23:02:00,25.7,23.4,30.48,North,9,0.0,0.0,91,0.00,,,0.13,Wunderground v.1.13,2013-01-27 04:02:00,
2013-01-26 23:07:00,25.6,23.3,30.48,North,9,0.0,0.0,91,0.00,,,0.13,Wunderground v.1.13,2013-01-27 04:07:00,
2013-01-26 23:13:00,25.5,23.2,30.48,North,9,0.0,0.0,91,0.00,,,0.13,Wunderground v.1.13,2013-01-27 04:13:00,
2013-01-26 23:18:00,25.4,23.1,30.48,North,9,0.0,0.0,91,0.00,,,0.13,Wunderground v.1.13,2013-01-27 04:18:00,
2013-01-26 23:24:00,25.3,23.0,30.48,North,9,0.0,0.0,91,0.00,,,0.13,Wunderground v.1.13,2013-01-27 04:24:00,
2013-01-26 23:30:00,25.0,22.7,30.48,North,9,0.0,0.0,91,0.00,,,0.13,Wunderground v.1.13,2013-01-27 04:30:00,
2013-01-26 23:36:00,24.9,22.6,30.48,North,9,0.0,0.0,91,0.00,,,0.13,Wunderground v.1.13,2013-01-27 04:36:00,
2013-01-26 23:42:00,24.8,22.5,30.48,North,9,0.0,0.0,91,0.00,,,0.13,Wunderground v.1.13,2013-01-27 04:42:00,
2013-01-26 23:47:00,24.6,22.3,30.48,North,9,0.0,0.0,91,0.00,,,0.13,Wunderground v.1.13,2013-01-27 04:47:00,
2013-01-26 23:53:00,24.6,22.3,30.48,North,9,0.0,0.0,91,0.00,,,0.13,Wunderground v.1.13,2013-01-27 04:53:00,
2013-01-26 23:58:00,24.6,22.3,30.48,North,9,0.0,0.0,91,0.00,,,0.13,Wunderground v.1.13,2013-01-27 04:58:00,